sensor_id;sensor_type;location;lat;lon;timestamp;pressure;altitude;pressure_sealevel;temperature;humidity
7480;BME280;3781;42.272;22.658;2023-01-29T00:00:47;94665.00;;;1.39;100.00
7480;BME280;3781;42.272;22.658;2023-01-29T00:03:14;94631.31;;;1.31;100.00
7480;BME280;3781;42.272;22.658;2023-01-29T00:05:41;94677.47;;;1.63;100.00
7480;BME280;3781;42.272;22.658;2023-01-29T00:08:08;94680.44;;;1.71;100.00
7480;BME280;3781;42.272;22.658;2023-01-29T00:10:35;94667.06;;;1.66;100.00
7480;BME280;3781;42.272;22.658;2023-01-29T00:13:01;94655.06;;;1.50;100.00
7480;BME280;3781;42.272;22.658;2023-01-29T00:15:29;94669.94;;;1.60;100.00
7480;BME280;3781;42.272;22.658;2023-01-29T00:17:57;94679.97;;;1.80;100.00
7480;BME280;3781;42.272;22.658;2023-01-29T00:20:24;94691.69;;;1.84;100.00
7480;BME280;3781;42.272;22.658;2023-01-29T00:22:51;94635.56;;;1.48;100.00
7480;BME280;3781;42.272;22.658;2023-01-29T00:25:18;94698.28;;;1.72;100.00
7480;BME280;3781;42.272;22.658;2023-01-29T00:27:45;94690.84;;;1.68;100.00
7480;BME280;3781;42.272;22.658;2023-01-29T00:30:12;94679.75;;;1.51;100.00
7480;BME280;3781;42.272;22.658;2023-01-29T00:32:43;94700.19;;;1.69;100.00
7480;BME280;3781;42.272;22.658;2023-01-29T00:35:11;94686.22;;;1.59;100.00
7480;BME280;3781;42.272;22.658;2023-01-29T00:37:38;94697.97;;;1.78;100.00
7480;BME280;3781;42.272;22.658;2023-01-29T00:40:06;94698.47;;;1.69;100.00
7480;BME280;3781;42.272;22.658;2023-01-29T00:42:33;94697.94;;;1.63;100.00
7480;BME280;3781;42.272;22.658;2023-01-29T00:45:17;94693.94;;;1.57;100.00
7480;BME280;3781;42.272;22.658;2023-01-29T00:47:44;94696.00;;;1.50;100.00
7480;BME280;3781;42.272;22.658;2023-01-29T00:50:12;94677.06;;;1.37;100.00
7480;BME280;3781;42.272;22.658;2023-01-29T00:52:39;94690.50;;;1.58;100.00
7480;BME280;3781;42.272;22.658;2023-01-29T00:55:07;94668.16;;;1.44;100.00
7480;BME280;3781;42.272;22.658;2023-01-29T00:57:35;94693.09;;;1.74;100.00
7480;BME280;3781;42.272;22.658;2023-01-29T01:00:07;94677.06;;;1.70;100.00
7480;BME280;3781;42.272;22.658;2023-01-29T01:02:34;94702.91;;;1.81;100.00
7480;BME280;3781;42.272;22.658;2023-01-29T01:05:20;94699.09;;;1.73;100.00
7480;BME280;3781;42.272;22.658;2023-01-29T01:07:49;94699.53;;;1.65;100.00
7480;BME280;3781;42.272;22.658;2023-01-29T01:10:18;94704.31;;;1.71;100.00
7480;BME280;3781;42.272;22.658;2023-01-29T01:12:47;94700.22;;;1.51;100.00
7480;BME280;3781;42.272;22.658;2023-01-29T01:15:15;94689.16;;;1.51;100.00
7480;BME280;3781;42.272;22.658;2023-01-29T01:17:42;94689.28;;;1.32;100.00
7480;BME280;3781;42.272;22.658;2023-01-29T01:20:10;94700.53;;;1.45;100.00
7480;BME280;3781;42.272;22.658;2023-01-29T01:22:38;94694.16;;;1.70;100.00
7480;BME280;3781;42.272;22.658;2023-01-29T01:25:05;94704.59;;;1.82;100.00
7480;BME280;3781;42.272;22.658;2023-01-29T01:27:32;94684.22;;;1.64;100.00
7480;BME280;3781;42.272;22.658;2023-01-29T01:30:02;94618.91;;;1.08;100.00
7480;BME280;3781;42.272;22.658;2023-01-29T01:32:29;94691.56;;;1.54;100.00
7480;BME280;3781;42.272;22.658;2023-01-29T01:34:56;94631.44;;;1.13;100.00
7480;BME280;3781;42.272;22.658;2023-01-29T01:37:23;94680.81;;;1.47;100.00
7480;BME280;3781;42.272;22.658;2023-01-29T01:39:51;94687.91;;;1.42;100.00
7480;BME280;3781;42.272;22.658;2023-01-29T01:42:27;94666.94;;;1.19;100.00
7480;BME280;3781;42.272;22.658;2023-01-29T01:44:57;94682.81;;;1.25;100.00
7480;BME280;3781;42.272;22.658;2023-01-29T01:47:32;94702.97;;;1.31;100.00
7480;BME280;3781;42.272;22.658;2023-01-29T01:50:05;94673.34;;;1.10;100.00
7480;BME280;3781;42.272;22.658;2023-01-29T01:52:36;94687.94;;;1.08;100.00
7480;BME280;3781;42.272;22.658;2023-01-29T01:55:08;94702.22;;;1.12;100.00
7480;BME280;3781;42.272;22.658;2023-01-29T01:57:37;94698.22;;;1.07;100.00
7480;BME280;3781;42.272;22.658;2023-01-29T02:00:07;94679.06;;;0.98;100.00
7480;BME280;3781;42.272;22.658;2023-01-29T02:02:37;94702.22;;;1.12;100.00
7480;BME280;3781;42.272;22.658;2023-01-29T02:05:23;94691.63;;;1.03;100.00
7480;BME280;3781;42.272;22.658;2023-01-29T02:08:08;94707.16;;;1.15;100.00
7480;BME280;3781;42.272;22.658;2023-01-29T02:10:54;94690.06;;;1.17;100.00
7480;BME280;3781;42.272;22.658;2023-01-29T02:13:22;94687.53;;;1.16;100.00
7480;BME280;3781;42.272;22.658;2023-01-29T02:15:48;94688.91;;;1.23;100.00
7480;BME280;3781;42.272;22.658;2023-01-29T02:18:16;94711.97;;;1.38;100.00
7480;BME280;3781;42.272;22.658;2023-01-29T02:20:49;94706.13;;;1.36;100.00
7480;BME280;3781;42.272;22.658;2023-01-29T02:26:29;94716.81;;;1.27;100.00
7480;BME280;3781;42.272;22.658;2023-01-29T02:29:06;94716.59;;;1.32;100.00
7480;BME280;3781;42.272;22.658;2023-01-29T02:31:56;94719.34;;;1.44;100.00
7480;BME280;3781;42.272;22.658;2023-01-29T02:34:35;94711.25;;;1.36;100.00
7480;BME280;3781;42.272;22.658;2023-01-29T02:37:25;94717.56;;;1.29;100.00
7480;BME280;3781;42.272;22.658;2023-01-29T02:40:04;94718.00;;;1.37;100.00
7480;BME280;3781;42.272;22.658;2023-01-29T02:42:34;94704.97;;;1.42;100.00
7480;BME280;3781;42.272;22.658;2023-01-29T02:45:11;94695.56;;;1.42;100.00
7480;BME280;3781;42.272;22.658;2023-01-29T02:47:43;94709.16;;;1.60;100.00
7480;BME280;3781;42.272;22.658;2023-01-29T02:50:15;94719.50;;;1.41;100.00
7480;BME280;3781;42.272;22.658;2023-01-29T02:52:49;94702.97;;;1.31;100.00
7480;BME280;3781;42.272;22.658;2023-01-29T02:55:23;94717.00;;;1.40;100.00
7480;BME280;3781;42.272;22.658;2023-01-29T02:57:53;94721.00;;;1.45;100.00
7480;BME280;3781;42.272;22.658;2023-01-29T03:00:24;94722.34;;;1.52;100.00
7480;BME280;3781;42.272;22.658;2023-01-29T03:02:57;94724.16;;;1.50;100.00
7480;BME280;3781;42.272;22.658;2023-01-29T03:05:28;94721.38;;;1.38;100.00
7480;BME280;3781;42.272;22.658;2023-01-29T03:08:00;94705.41;;;1.17;100.00
7480;BME280;3781;42.272;22.658;2023-01-29T03:10:34;94711.84;;;1.24;100.00
7480;BME280;3781;42.272;22.658;2023-01-29T03:13:07;94711.81;;;1.41;100.00
7480;BME280;3781;42.272;22.658;2023-01-29T03:15:42;94685.69;;;1.19;100.00
7480;BME280;3781;42.272;22.658;2023-01-29T03:18:14;94689.72;;;1.23;100.00
7480;BME280;3781;42.272;22.658;2023-01-29T03:20:44;94734.00;;;1.58;100.00
7480;BME280;3781;42.272;22.658;2023-01-29T03:23:17;94733.78;;;1.63;100.00
7480;BME280;3781;42.272;22.658;2023-01-29T03:25:50;94731.66;;;1.71;100.00
7480;BME280;3781;42.272;22.658;2023-01-29T03:28:35;94728.97;;;1.39;100.00
7480;BME280;3781;42.272;22.658;2023-01-29T03:31:24;94713.34;;;1.11;100.00
7480;BME280;3781;42.272;22.658;2023-01-29T03:34:13;94720.88;;;1.14;100.00
7480;BME280;3781;42.272;22.658;2023-01-29T03:36:51;94732.28;;;1.24;100.00
7480;BME280;3781;42.272;22.658;2023-01-29T03:39:21;94681.03;;;0.93;100.00
7480;BME280;3781;42.272;22.658;2023-01-29T03:41:53;94729.44;;;1.13;100.00
7480;BME280;3781;42.272;22.658;2023-01-29T03:44:27;94747.22;;;1.16;100.00
7480;BME280;3781;42.272;22.658;2023-01-29T03:47:01;94734.56;;;1.13;100.00
7480;BME280;3781;42.272;22.658;2023-01-29T03:49:35;94723.78;;;1.07;100.00
7480;BME280;3781;42.272;22.658;2023-01-29T03:52:13;94746.59;;;1.11;100.00
7480;BME280;3781;42.272;22.658;2023-01-29T03:54:46;94740.69;;;1.11;100.00
7480;BME280;3781;42.272;22.658;2023-01-29T03:57:28;94730.06;;;1.01;100.00
7480;BME280;3781;42.272;22.658;2023-01-29T04:00:02;94664.03;;;0.58;100.00
7480;BME280;3781;42.272;22.658;2023-01-29T04:02:37;94718.41;;;0.96;100.00
7480;BME280;3781;42.272;22.658;2023-01-29T04:05:12;94719.97;;;0.98;100.00
7480;BME280;3781;42.272;22.658;2023-01-29T04:07:43;94722.47;;;1.00;100.00
7480;BME280;3781;42.272;22.658;2023-01-29T04:10:14;94748.19;;;1.14;100.00
7480;BME280;3781;42.272;22.658;2023-01-29T04:12:45;94749.75;;;1.16;100.00
7480;BME280;3781;42.272;22.658;2023-01-29T04:15:14;94746.22;;;1.02;100.00
7480;BME280;3781;42.272;22.658;2023-01-29T04:17:47;94746.44;;;0.97;100.00
7480;BME280;3781;42.272;22.658;2023-01-29T04:20:16;94729.44;;;0.79;100.00
7480;BME280;3781;42.272;22.658;2023-01-29T04:22:45;94747.34;;;0.96;100.00
7480;BME280;3781;42.272;22.658;2023-01-29T04:25:15;94755.94;;;1.12;100.00
7480;BME280;3781;42.272;22.658;2023-01-29T04:27:49;94747.22;;;1.16;100.00
7480;BME280;3781;42.272;22.658;2023-01-29T04:30:31;94735.47;;;1.29;100.00
7480;BME280;3781;42.272;22.658;2023-01-29T04:33:14;94762.63;;;1.49;100.00
7480;BME280;3781;42.272;22.658;2023-01-29T04:35:59;94756.97;;;1.42;100.00
7480;BME280;3781;42.272;22.658;2023-01-29T04:38:39;94761.34;;;1.40;100.00
7480;BME280;3781;42.272;22.658;2023-01-29T04:41:11;94765.53;;;1.41;100.00
7480;BME280;3781;42.272;22.658;2023-01-29T04:43:48;94763.00;;;1.24;100.00
7480;BME280;3781;42.272;22.658;2023-01-29T04:46:25;94773.66;;;1.15;100.00
7480;BME280;3781;42.272;22.658;2023-01-29T04:49:01;94773.97;;;1.09;100.00
7480;BME280;3781;42.272;22.658;2023-01-29T04:51:36;94773.41;;;1.21;100.00
7480;BME280;3781;42.272;22.658;2023-01-29T04:54:15;94773.41;;;1.21;100.00
7480;BME280;3781;42.272;22.658;2023-01-29T04:56:50;94774.72;;;1.28;100.00
7480;BME280;3781;42.272;22.658;2023-01-29T04:59:22;94756.59;;;1.33;100.00
7480;BME280;3781;42.272;22.658;2023-01-29T05:01:53;94768.09;;;1.41;100.00
7480;BME280;3781;42.272;22.658;2023-01-29T05:04:22;94751.25;;;1.20;100.00
7480;BME280;3781;42.272;22.658;2023-01-29T05:06:50;94769.59;;;1.28;100.00
7480;BME280;3781;42.272;22.658;2023-01-29T05:09:18;94701.00;;;0.85;100.00
7480;BME280;3781;42.272;22.658;2023-01-29T05:11:46;94759.84;;;1.19;100.00
7480;BME280;3781;42.272;22.658;2023-01-29T05:14:16;94772.78;;;1.16;100.00
7480;BME280;3781;42.272;22.658;2023-01-29T05:16:46;94757.75;;;1.10;100.00
7480;BME280;3781;42.272;22.658;2023-01-29T05:19:16;94765.94;;;1.17;100.00
7480;BME280;3781;42.272;22.658;2023-01-29T05:21:47;94720.56;;;0.86;100.00
7480;BME280;3781;42.272;22.658;2023-01-29T05:24:15;94766.78;;;1.17;100.00
7480;BME280;3781;42.272;22.658;2023-01-29T05:26:44;94770.22;;;1.16;100.00
7480;BME280;3781;42.272;22.658;2023-01-29T05:29:29;94756.47;;;1.02;100.00
7480;BME280;3781;42.272;22.658;2023-01-29T05:31:56;94777.28;;;1.11;100.00
7480;BME280;3781;42.272;22.658;2023-01-29T05:34:23;94766.38;;;1.08;100.00
7480;BME280;3781;42.272;22.658;2023-01-29T05:36:51;94772.34;;;1.08;100.00
7480;BME280;3781;42.272;22.658;2023-01-29T05:39:18;94787.25;;;1.17;100.00
7480;BME280;3781;42.272;22.658;2023-01-29T05:41:45;94787.06;;;1.20;100.00
7480;BME280;3781;42.272;22.658;2023-01-29T05:44:12;94782.56;;;1.08;100.00
7480;BME280;3781;42.272;22.658;2023-01-29T05:46:39;94756.22;;;0.89;100.00
7480;BME280;3781;42.272;22.658;2023-01-29T05:49:05;94789.31;;;1.26;100.00
7480;BME280;3781;42.272;22.658;2023-01-29T05:51:32;94790.69;;;1.33;100.00
7480;BME280;3781;42.272;22.658;2023-01-29T05:54:00;94787.81;;;1.39;100.00
7480;BME280;3781;42.272;22.658;2023-01-29T05:56:27;94791.00;;;1.44;100.00
7480;BME280;3781;42.272;22.658;2023-01-29T05:58:54;94734.88;;;1.07;100.00
7480;BME280;3781;42.272;22.658;2023-01-29T06:01:23;94793.63;;;1.43;100.00
7480;BME280;3781;42.272;22.658;2023-01-29T06:03:50;94796.09;;;1.44;100.00
7480;BME280;3781;42.272;22.658;2023-01-29T06:06:17;94791.31;;;1.38;100.00
7480;BME280;3781;42.272;22.658;2023-01-29T06:08:44;94806.66;;;1.38;100.00
7480;BME280;3781;42.272;22.658;2023-01-29T06:11:13;94801.84;;;1.32;100.00
7480;BME280;3781;42.272;22.658;2023-01-29T06:13:40;94808.47;;;1.36;100.00
7480;BME280;3781;42.272;22.658;2023-01-29T06:16:08;94813.28;;;1.42;100.00
7480;BME280;3781;42.272;22.658;2023-01-29T06:18:36;94817.84;;;1.36;100.00
7480;BME280;3781;42.272;22.658;2023-01-29T06:21:05;94819.75;;;1.49;100.00
7480;BME280;3781;42.272;22.658;2023-01-29T06:23:33;94686.94;;;0.76;100.00
7480;BME280;3781;42.272;22.658;2023-01-29T06:26:01;94826.69;;;1.47;100.00
7480;BME280;3781;42.272;22.658;2023-01-29T06:28:29;94821.56;;;1.47;100.00
7480;BME280;3781;42.272;22.658;2023-01-29T06:30:57;94802.38;;;1.39;100.00
7480;BME280;3781;42.272;22.658;2023-01-29T06:33:25;94825.41;;;1.56;100.00
7480;BME280;3781;42.272;22.658;2023-01-29T06:35:55;94826.91;;;1.60;100.00
7480;BME280;3781;42.272;22.658;2023-01-29T06:38:23;94829.06;;;1.68;100.00
7480;BME280;3781;42.272;22.658;2023-01-29T06:40:50;94808.91;;;1.62;100.00
7480;BME280;3781;42.272;22.658;2023-01-29T06:43:16;94817.31;;;1.64;100.00
7480;BME280;3781;42.272;22.658;2023-01-29T06:45:49;94834.25;;;1.83;100.00
7480;BME280;3781;42.272;22.658;2023-01-29T06:48:16;94829.66;;;1.90;100.00
7480;BME280;3781;42.272;22.658;2023-01-29T06:50:44;94828.34;;;1.98;100.00
7480;BME280;3781;42.272;22.658;2023-01-29T06:53:11;94832.63;;;2.15;100.00
7480;BME280;3781;42.272;22.658;2023-01-29T06:55:38;94829.78;;;2.04;100.00
7480;BME280;3781;42.272;22.658;2023-01-29T06:58:05;94828.88;;;2.05;100.00
7480;BME280;3781;42.272;22.658;2023-01-29T07:00:32;94842.09;;;2.30;100.00
7480;BME280;3781;42.272;22.658;2023-01-29T07:03:01;94819.78;;;2.32;100.00
7480;BME280;3781;42.272;22.658;2023-01-29T07:05:27;94848.16;;;2.60;100.00
7480;BME280;3781;42.272;22.658;2023-01-29T07:07:54;94848.34;;;2.73;100.00
7480;BME280;3781;42.272;22.658;2023-01-29T07:10:21;94851.66;;;2.90;100.00
7480;BME280;3781;42.272;22.658;2023-01-29T07:12:48;94850.81;;;3.05;100.00
7480;BME280;3781;42.272;22.658;2023-01-29T07:15:15;94859.75;;;2.98;100.00
7480;BME280;3781;42.272;22.658;2023-01-29T07:17:54;94850.34;;;2.99;100.00
7480;BME280;3781;42.272;22.658;2023-01-29T07:20:23;94849.41;;;3.16;100.00
7480;BME280;3781;42.272;22.658;2023-01-29T07:22:50;94839.38;;;3.11;100.00
7480;BME280;3781;42.272;22.658;2023-01-29T07:25:16;94857.94;;;3.00;100.00
7480;BME280;3781;42.272;22.658;2023-01-29T07:27:43;94860.94;;;2.93;100.00
7480;BME280;3781;42.272;22.658;2023-01-29T07:30:11;94858.94;;;2.98;100.00
7480;BME280;3781;42.272;22.658;2023-01-29T07:32:38;94840.66;;;2.88;100.00
7480;BME280;3781;42.272;22.658;2023-01-29T07:35:05;94860.25;;;3.05;100.00
7480;BME280;3781;42.272;22.658;2023-01-29T07:37:34;94844.38;;;2.98;100.00
7480;BME280;3781;42.272;22.658;2023-01-29T07:40:00;94867.22;;;3.19;100.00
7480;BME280;3781;42.272;22.658;2023-01-29T07:42:29;94839.44;;;2.95;100.00
7480;BME280;3781;42.272;22.658;2023-01-29T07:44:56;94866.38;;;3.18;100.00
7480;BME280;3781;42.272;22.658;2023-01-29T07:47:22;94869.03;;;3.17;99.74
7480;BME280;3781;42.272;22.658;2023-01-29T07:49:49;94854.63;;;2.98;100.00
7480;BME280;3781;42.272;22.658;2023-01-29T07:52:16;94874.41;;;3.28;98.31
7480;BME280;3781;42.272;22.658;2023-01-29T07:54:44;94877.81;;;3.28;96.68
7480;BME280;3781;42.272;22.658;2023-01-29T07:57:11;94850.25;;;3.00;98.53
7480;BME280;3781;42.272;22.658;2023-01-29T07:59:38;94885.91;;;3.05;98.33
7480;BME280;3781;42.272;22.658;2023-01-29T08:02:05;94895.19;;;2.92;98.12
7480;BME280;3781;42.272;22.658;2023-01-29T08:04:32;94891.97;;;2.88;97.97
7480;BME280;3781;42.272;22.658;2023-01-29T08:06:58;94891.88;;;3.05;97.23
7480;BME280;3781;42.272;22.658;2023-01-29T08:09:25;94867.22;;;3.03;97.73
7480;BME280;3781;42.272;22.658;2023-01-29T08:11:54;94896.31;;;3.33;94.06
7480;BME280;3781;42.272;22.658;2023-01-29T08:14:21;94879.44;;;3.14;91.34
7480;BME280;3781;42.272;22.658;2023-01-29T08:16:48;94901.31;;;3.21;90.52
7480;BME280;3781;42.272;22.658;2023-01-29T08:19:15;94899.56;;;3.21;89.92
7480;BME280;3781;42.272;22.658;2023-01-29T08:21:42;94878.56;;;2.99;90.51
7480;BME280;3781;42.272;22.658;2023-01-29T08:24:09;94866.94;;;2.76;88.60
7480;BME280;3781;42.272;22.658;2023-01-29T08:26:35;94903.28;;;2.84;88.29
7480;BME280;3781;42.272;22.658;2023-01-29T08:29:04;94913.88;;;2.78;86.97
7480;BME280;3781;42.272;22.658;2023-01-29T08:31:30;94888.59;;;2.55;88.33
7480;BME280;3781;42.272;22.658;2023-01-29T08:33:57;94909.78;;;2.74;88.37
7480;BME280;3781;42.272;22.658;2023-01-29T08:36:24;94911.41;;;2.92;90.48
7480;BME280;3781;42.272;22.658;2023-01-29T08:38:51;94917.69;;;3.18;86.93
7480;BME280;3781;42.272;22.658;2023-01-29T08:41:18;94918.03;;;3.28;84.92
7480;BME280;3781;42.272;22.658;2023-01-29T08:43:44;94920.25;;;3.34;85.49
7480;BME280;3781;42.272;22.658;2023-01-29T08:46:13;94924.78;;;3.60;86.40
7480;BME280;3781;42.272;22.658;2023-01-29T08:48:39;94924.38;;;3.67;86.98
7480;BME280;3781;42.272;22.658;2023-01-29T08:51:07;94917.00;;;3.46;86.87
7480;BME280;3781;42.272;22.658;2023-01-29T08:53:34;94938.88;;;3.53;86.33
7480;BME280;3781;42.272;22.658;2023-01-29T08:56:01;94938.56;;;3.43;85.79
7480;BME280;3781;42.272;22.658;2023-01-29T08:58:28;94940.72;;;3.51;86.33
7480;BME280;3781;42.272;22.658;2023-01-29T09:00:54;94925.66;;;3.45;87.30
7480;BME280;3781;42.272;22.658;2023-01-29T09:03:22;94938.47;;;3.45;87.29
7480;BME280;3781;42.272;22.658;2023-01-29T09:05:49;94939.06;;;3.34;86.89
7480;BME280;3781;42.272;22.658;2023-01-29T09:08:16;94938.63;;;3.42;87.27
7480;BME280;3781;42.272;22.658;2023-01-29T09:10:43;94943.13;;;3.38;85.47
7480;BME280;3781;42.272;22.658;2023-01-29T09:13:11;94944.19;;;3.19;85.89
7480;BME280;3781;42.272;22.658;2023-01-29T09:15:38;94938.28;;;2.85;85.48
7480;BME280;3781;42.272;22.658;2023-01-29T09:18:05;94940.69;;;2.88;88.62
7480;BME280;3781;42.272;22.658;2023-01-29T09:20:33;94930.09;;;2.94;89.16
7480;BME280;3781;42.272;22.658;2023-01-29T09:23:04;94884.72;;;2.64;89.98
7480;BME280;3781;42.272;22.658;2023-01-29T09:25:30;94937.06;;;2.92;88.58
7480;BME280;3781;42.272;22.658;2023-01-29T09:27:57;94928.28;;;2.96;89.63
7480;BME280;3781;42.272;22.658;2023-01-29T09:30:24;94941.00;;;2.98;92.30
7480;BME280;3781;42.272;22.658;2023-01-29T09:32:51;94920.31;;;2.85;90.10
7480;BME280;3781;42.272;22.658;2023-01-29T09:35:18;94931.91;;;2.92;90.43
7480;BME280;3781;42.272;22.658;2023-01-29T09:37:47;94915.19;;;2.85;89.06
7480;BME280;3781;42.272;22.658;2023-01-29T09:40:22;94931.91;;;2.92;89.72
7480;BME280;3781;42.272;22.658;2023-01-29T09:42:55;94901.81;;;2.80;91.77
7480;BME280;3781;42.272;22.658;2023-01-29T09:45:26;94912.53;;;2.71;93.58
7480;BME280;3781;42.272;22.658;2023-01-29T09:50:27;94913.91;;;2.61;95.66
7480;BME280;3781;42.272;22.658;2023-01-29T09:52:58;94912.91;;;2.64;95.07
7480;BME280;3781;42.272;22.658;2023-01-29T09:55:29;94913.63;;;2.67;96.31
7480;BME280;3781;42.272;22.658;2023-01-29T09:58:04;94888.53;;;2.72;93.80
7480;BME280;3781;42.272;22.658;2023-01-29T10:00:35;94894.66;;;2.85;91.61
7480;BME280;3781;42.272;22.658;2023-01-29T10:03:18;94907.19;;;3.07;91.09
7480;BME280;3781;42.272;22.658;2023-01-29T10:06:04;94902.03;;;3.07;91.26
7480;BME280;3781;42.272;22.658;2023-01-29T10:09:24;94902.63;;;3.28;92.17
7480;BME280;3781;42.272;22.658;2023-01-29T10:12:04;94892.53;;;3.40;92.30
7480;BME280;3781;42.272;22.658;2023-01-29T10:14:38;94871.97;;;3.56;89.19
7480;BME280;3781;42.272;22.658;2023-01-29T10:17:19;94879.69;;;3.70;86.90
7480;BME280;3781;42.272;22.658;2023-01-29T10:19:57;94878.53;;;3.75;84.71
7480;BME280;3781;42.272;22.658;2023-01-29T10:22:44;94862.41;;;3.73;80.57
7480;BME280;3781;42.272;22.658;2023-01-29T10:25:19;94833.88;;;3.48;78.73
7480;BME280;3781;42.272;22.658;2023-01-29T10:27:49;94840.63;;;3.65;77.77
7480;BME280;3781;42.272;22.658;2023-01-29T10:30:30;94879.91;;;4.11;77.65
7480;BME280;3781;42.272;22.658;2023-01-29T10:33:01;94883.50;;;4.22;77.61
7480;BME280;3781;42.272;22.658;2023-01-29T10:35:30;94871.59;;;4.21;80.15
7480;BME280;3781;42.272;22.658;2023-01-29T10:38:13;94845.09;;;4.05;78.13
7480;BME280;3781;42.272;22.658;2023-01-29T10:40:45;94871.00;;;4.16;79.26
7480;BME280;3781;42.272;22.658;2023-01-29T10:43:21;94875.41;;;4.14;76.08
7480;BME280;3781;42.272;22.658;2023-01-29T10:45:57;94874.22;;;4.20;74.98
7480;BME280;3781;42.272;22.658;2023-01-29T10:48:43;94873.97;;;4.38;73.83
7480;BME280;3781;42.272;22.658;2023-01-29T10:51:21;94872.59;;;4.47;72.41
7480;BME280;3781;42.272;22.658;2023-01-29T10:54:02;94840.34;;;3.99;74.13
7480;BME280;3781;42.272;22.658;2023-01-29T10:56:42;94864.78;;;4.20;74.34
7480;BME280;3781;42.272;22.658;2023-01-29T10:59:28;94861.38;;;4.06;77.30
7480;BME280;3781;42.272;22.658;2023-01-29T11:01:58;94860.00;;;4.00;74.98
7480;BME280;3781;42.272;22.658;2023-01-29T11:04:27;94848.63;;;4.04;75.32
7480;BME280;3781;42.272;22.658;2023-01-29T11:06:55;94841.63;;;4.06;76.04
7480;BME280;3781;42.272;22.658;2023-01-29T11:09:29;94853.50;;;4.23;77.35
7480;BME280;3781;42.272;22.658;2023-01-29T11:12:01;94814.28;;;4.05;74.84
7480;BME280;3781;42.272;22.658;2023-01-29T11:14:30;94852.72;;;4.07;75.88
7480;BME280;3781;42.272;22.658;2023-01-29T11:16:59;94836.31;;;4.09;76.79
7480;BME280;3781;42.272;22.658;2023-01-29T11:19:36;94850.09;;;4.36;77.96
7480;BME280;3781;42.272;22.658;2023-01-29T11:22:03;94803.06;;;3.92;74.61
7480;BME280;3781;42.272;22.658;2023-01-29T11:24:33;94839.97;;;4.05;76.26
7480;BME280;3781;42.272;22.658;2023-01-29T11:27:12;94851.00;;;4.21;77.05
7480;BME280;3781;42.272;22.658;2023-01-29T11:29:42;94843.09;;;4.24;76.71
7480;BME280;3781;42.272;22.658;2023-01-29T11:32:12;94817.53;;;3.79;74.08
7480;BME280;3781;42.272;22.658;2023-01-29T11:34:56;94820.81;;;3.67;74.44
7480;BME280;3781;42.272;22.658;2023-01-29T11:37:31;94804.84;;;3.62;74.70
7480;BME280;3781;42.272;22.658;2023-01-29T11:39:58;94827.44;;;3.71;77.40
7480;BME280;3781;42.272;22.658;2023-01-29T11:42:29;94841.22;;;3.84;75.76
7480;BME280;3781;42.272;22.658;2023-01-29T11:44:56;94782.75;;;3.30;77.03
7480;BME280;3781;42.272;22.658;2023-01-29T11:47:26;94816.78;;;3.63;77.48
7480;BME280;3781;42.272;22.658;2023-01-29T11:49:55;94821.38;;;3.72;80.60
7480;BME280;3781;42.272;22.658;2023-01-29T11:52:23;94832.59;;;3.85;77.60
7480;BME280;3781;42.272;22.658;2023-01-29T11:54:53;94836.56;;;3.91;76.98
7480;BME280;3781;42.272;22.658;2023-01-29T11:57:29;94828.00;;;3.76;77.21
7480;BME280;3781;42.272;22.658;2023-01-29T11:59:59;94828.06;;;3.60;77.84
7480;BME280;3781;42.272;22.658;2023-01-29T12:02:33;94828.66;;;3.79;77.21
7480;BME280;3781;42.272;22.658;2023-01-29T12:05:04;94819.38;;;3.77;73.96
7480;BME280;3781;42.272;22.658;2023-01-29T12:07:33;94797.34;;;3.73;76.08
7480;BME280;3781;42.272;22.658;2023-01-29T12:10:29;94820.34;;;4.04;75.66
7480;BME280;3781;42.272;22.658;2023-01-29T12:13:05;94820.88;;;4.09;75.73
7480;BME280;3781;42.272;22.658;2023-01-29T12:15:32;94817.25;;;4.41;74.02
7480;BME280;3781;42.272;22.658;2023-01-29T12:18:04;94772.97;;;4.36;73.39
7480;BME280;3781;42.272;22.658;2023-01-29T12:20:34;94805.16;;;4.70;74.88
7480;BME280;3781;42.272;22.658;2023-01-29T12:23:13;94805.25;;;4.69;71.32
7480;BME280;3781;42.272;22.658;2023-01-29T12:25:49;94807.16;;;4.79;72.85
7480;BME280;3781;42.272;22.658;2023-01-29T12:28:31;94806.94;;;4.70;71.74
7480;BME280;3781;42.272;22.658;2023-01-29T12:31:10;94804.34;;;4.55;73.02
7480;BME280;3781;42.272;22.658;2023-01-29T12:33:45;94806.00;;;4.71;74.78
7480;BME280;3781;42.272;22.658;2023-01-29T12:36:20;94792.78;;;4.48;72.38
7480;BME280;3781;42.272;22.658;2023-01-29T12:38:47;94791.22;;;4.60;73.40
7480;BME280;3781;42.272;22.658;2023-01-29T12:41:29;94806.50;;;4.90;72.66
7480;BME280;3781;42.272;22.658;2023-01-29T12:44:04;94795.78;;;5.10;72.36
7480;BME280;3781;42.272;22.658;2023-01-29T12:46:36;94801.19;;;5.19;71.45
7480;BME280;3781;42.272;22.658;2023-01-29T12:49:10;94797.78;;;5.19;71.49
7480;BME280;3781;42.272;22.658;2023-01-29T12:51:41;94792.63;;;4.92;71.58
7480;BME280;3781;42.272;22.658;2023-01-29T12:54:15;94795.84;;;4.96;73.03
7480;BME280;3781;42.272;22.658;2023-01-29T12:56:47;94790.16;;;4.91;73.00
7480;BME280;3781;42.272;22.658;2023-01-29T12:59:20;94800.84;;;4.85;72.42
7480;BME280;3781;42.272;22.658;2023-01-29T13:01:52;94803.25;;;4.74;72.89
7480;BME280;3781;42.272;22.658;2023-01-29T13:04:29;94813.16;;;4.80;72.41
7480;BME280;3781;42.272;22.658;2023-01-29T13:07:06;94811.94;;;4.85;72.43
7480;BME280;3781;42.272;22.658;2023-01-29T13:09:33;94812.63;;;4.61;73.76
7480;BME280;3781;42.272;22.658;2023-01-29T13:12:08;94803.91;;;4.49;75.26
7480;BME280;3781;42.272;22.658;2023-01-29T13:14:43;94799.88;;;4.31;76.74
7480;BME280;3781;42.272;22.658;2023-01-29T13:17:14;94804.53;;;4.24;75.71
7480;BME280;3781;42.272;22.658;2023-01-29T13:19:45;94809.88;;;4.21;75.77
7480;BME280;3781;42.272;22.658;2023-01-29T13:22:18;94804.53;;;4.24;76.14
7480;BME280;3781;42.272;22.658;2023-01-29T13:24:45;94809.97;;;4.20;75.83
7480;BME280;3781;42.272;22.658;2023-01-29T13:27:22;94809.69;;;4.24;76.23
7480;BME280;3781;42.272;22.658;2023-01-29T13:29:51;94806.75;;;4.16;76.81
7480;BME280;3781;42.272;22.658;2023-01-29T13:32:21;94799.78;;;4.18;76.82
7480;BME280;3781;42.272;22.658;2023-01-29T13:34:49;94801.06;;;4.25;76.71
7480;BME280;3781;42.272;22.658;2023-01-29T13:37:23;94798.94;;;4.18;76.68
7480;BME280;3781;42.272;22.658;2023-01-29T13:39:53;94806.75;;;4.16;77.64
7480;BME280;3781;42.272;22.658;2023-01-29T13:42:24;94796.84;;;4.10;77.19